Time;durP1;ratioP1;P1;durP2;ratioP2;P2;SDS_P1;SDS_P2;PMS_P1;PMS_P2;Temp;Humidity;BMP_temperature;BMP_pressure;BME280_temperature;BME280_humidity;BME280_pressure;Samples;Min_cycle;Max_cycle;Signal;HPM_P1;HPM_P2
2022/03/01 00:00:10;;;;;;;20.30;13.37;;;4.90;99.30;;;;;;5031419;28;20234;-39
2022/03/01 00:02:43;;;;;;;21.57;13.37;;;4.90;99.40;;;;;;5045512;28;20203;-39
2022/03/01 00:05:11;;;;;;;20.63;12.47;;;4.90;99.40;;;;;;5036908;28;20212;-39
2022/03/01 00:07:40;;;;;;;18.10;12.77;;;4.80;99.40;;;;;;5031411;28;20209;-39
2022/03/01 00:10:08;;;;;;;22.83;13.63;;;4.80;99.40;;;;;;5019126;28;20314;-39
2022/03/01 00:12:43;;;;;;;19.83;13.37;;;4.80;99.30;;;;;;5032969;28;20225;-40
2022/03/01 00:15:33;;;;;;;23.30;14.10;;;4.80;99.30;;;;;;5014800;28;20216;-39
2022/03/01 00:18:05;;;;;;;21.00;14.70;;;4.70;99.30;;;;;;5033704;28;20292;-40
2022/03/01 00:20:39;;;;;;;19.27;13.70;;;4.70;99.30;;;;;;5029900;28;20214;-40
2022/03/01 00:23:09;;;;;;;24.73;14.37;;;4.70;99.30;;;;;;5032605;28;20205;-38
2022/03/01 00:25:37;;;;;;;21.27;13.17;;;4.70;99.30;;;;;;5029455;28;20237;-40
2022/03/01 00:28:06;;;;;;;19.00;12.97;;;4.70;99.30;;;;;;5044950;28;20208;-39
2022/03/01 00:30:39;;;;;;;20.37;12.73;;;4.60;99.20;;;;;;5029678;28;20212;-39
2022/03/01 00:33:09;;;;;;;20.23;13.00;;;4.60;99.20;;;;;;5029945;28;20240;-40
2022/03/01 00:35:36;;;;;;;20.57;12.87;;;4.60;99.20;;;;;;5029841;28;20371;-39
2022/03/01 00:38:08;;;;;;;22.33;13.67;;;4.60;99.20;;;;;;5038071;28;20199;-39
2022/03/01 00:40:43;;;;;;;25.47;12.83;;;4.50;99.20;;;;;;5032099;28;20231;-39
2022/03/01 00:43:15;;;;;;;21.30;14.23;;;4.50;99.20;;;;;;5029897;28;20674;-39
2022/03/01 00:45:45;;;;;;;20.00;13.00;;;4.50;99.20;;;;;;5032723;28;20217;-37
2022/03/01 00:48:12;;;;;;;24.37;13.30;;;4.50;99.20;;;;;;5030972;28;20193;-37
2022/03/01 00:50:39;;;;;;;21.37;13.33;;;4.50;99.20;;;;;;5029417;28;20201;-38
2022/03/01 00:53:07;;;;;;;18.47;13.27;;;4.50;99.20;;;;;;5035139;28;20702;-37
2022/03/01 00:55:39;;;;;;;17.23;12.87;;;4.50;99.20;;;;;;5032753;28;20201;-38
2022/03/01 00:58:09;;;;;;;21.53;12.77;;;4.50;99.20;;;;;;5040036;28;20208;-37
2022/03/01 01:00:38;;;;;;;20.47;13.37;;;4.50;99.20;;;;;;5029791;28;20319;-37
2022/03/01 01:03:10;;;;;;;20.07;14.17;;;4.50;99.20;;;;;;5042897;28;20346;-37
2022/03/01 01:05:38;;;;;;;18.43;12.90;;;4.40;99.20;;;;;;5037151;28;20200;-37
2022/03/01 01:08:05;;;;;;;19.90;12.73;;;4.50;99.20;;;;;;5028626;28;20208;-37
2022/03/01 01:10:35;;;;;;;20.13;13.43;;;4.50;99.20;;;;;;5040917;28;20612;-38
2022/03/01 01:13:05;;;;;;;18.33;12.30;;;4.50;99.20;;;;;;5028357;28;20209;-38
2022/03/01 01:15:32;;;;;;;20.63;12.87;;;4.50;99.20;;;;;;5042393;28;20319;-37
2022/03/01 01:18:02;;;;;;;22.97;13.33;;;4.50;99.20;;;;;;5013162;28;20212;-38
2022/03/01 01:20:29;;;;;;;20.43;13.10;;;4.50;99.20;;;;;;5031051;28;20201;-38
2022/03/01 01:22:56;;;;;;;19.20;12.30;;;4.50;99.50;;;;;;5028064;28;20223;-37
2022/03/01 01:25:25;;;;;;;18.80;12.37;;;4.50;99.30;;;;;;5029149;28;20694;-37
2022/03/01 01:27:56;;;;;;;21.30;13.00;;;4.50;99.30;;;;;;4998911;28;20671;-38
2022/03/01 01:30:29;;;;;;;18.97;12.90;;;4.60;99.30;;;;;;5028595;28;20205;-37
2022/03/01 01:32:56;;;;;;;18.77;12.53;;;4.60;99.30;;;;;;5028974;28;20201;-37
2022/03/01 01:35:26;;;;;;;21.27;14.03;;;4.60;99.30;;;;;;5046682;28;20322;-38
2022/03/01 01:37:57;;;;;;;18.53;13.17;;;4.60;99.40;;;;;;5033023;28;20621;-38
2022/03/01 01:40:26;;;;;;;18.47;12.60;;;4.60;99.40;;;;;;5028157;28;20197;-37
2022/03/01 01:42:58;;;;;;;21.17;12.90;;;4.60;99.40;;;;;;5028217;28;20189;-38
2022/03/01 01:45:26;;;;;;;19.17;12.20;;;4.60;99.40;;;;;;5041162;28;20223;-38
2022/03/01 01:47:59;;;;;;;19.37;12.27;;;4.60;99.40;;;;;;5044104;28;20242;-38
2022/03/01 01:50:29;;;;;;;19.37;12.60;;;4.70;99.40;;;;;;5045826;28;20207;-37
2022/03/01 01:52:59;;;;;;;18.70;12.53;;;4.70;99.40;;;;;;5017500;28;20252;-38
2022/03/01 01:55:27;;;;;;;18.83;13.20;;;4.70;99.40;;;;;;5013289;28;20227;-38
2022/03/01 01:57:58;;;;;;;18.90;13.00;;;4.70;99.50;;;;;;5023363;28;20744;-38
2022/03/01 02:00:29;;;;;;;20.10;13.30;;;4.70;99.50;;;;;;5032460;28;20672;-38
2022/03/01 02:03:01;;;;;;;22.17;13.70;;;4.70;99.50;;;;;;5040902;28;20290;-37
2022/03/01 02:05:36;;;;;;;19.10;12.47;;;4.70;99.50;;;;;;5037681;28;20207;-38
2022/03/01 02:08:04;;;;;;;21.47;13.07;;;4.70;99.50;;;;;;5020217;28;20246;-38
2022/03/01 02:10:31;;;;;;;18.87;12.90;;;4.70;99.50;;;;;;5024481;28;20757;-38
2022/03/01 02:12:59;;;;;;;19.20;13.07;;;4.70;99.50;;;;;;5044307;28;20572;-38
2022/03/01 02:15:27;;;;;;;19.73;13.03;;;4.70;99.50;;;;;;5036171;28;20328;-38
2022/03/01 02:17:55;;;;;;;19.13;12.97;;;4.70;99.50;;;;;;5038849;28;20216;-38
2022/03/01 02:20:23;;;;;;;18.53;12.80;;;4.60;99.40;;;;;;5042853;28;20315;-38
2022/03/01 02:23:02;;;;;;;20.20;12.90;;;4.60;99.40;;;;;;5035107;28;20655;-38
2022/03/01 02:25:32;;;;;;;18.87;12.80;;;4.60;99.50;;;;;;5046535;28;20362;-38
2022/03/01 02:28:02;;;;;;;17.97;12.50;;;4.60;99.50;;;;;;5035534;28;20597;-37
2022/03/01 02:30:32;;;;;;;18.17;12.73;;;4.60;99.50;;;;;;5030087;28;20204;-38
2022/03/01 02:33:03;;;;;;;19.03;12.53;;;4.60;99.50;;;;;;5032750;28;20285;-37
2022/03/01 02:35:33;;;;;;;19.20;13.10;;;4.60;99.50;;;;;;5039996;28;20790;-37
2022/03/01 02:38:03;;;;;;;19.77;12.63;;;4.60;99.50;;;;;;5028428;28;20287;-37
2022/03/01 02:40:33;;;;;;;19.30;11.97;;;4.60;99.50;;;;;;5020405;28;20203;-37
2022/03/01 02:43:03;;;;;;;19.47;12.10;;;4.60;99.50;;;;;;5037144;28;20544;-37
2022/03/01 02:45:31;;;;;;;19.90;13.10;;;4.60;99.50;;;;;;5031370;28;20193;-37
2022/03/01 02:47:58;;;;;;;22.70;11.90;;;4.60;99.50;;;;;;5037354;28;20208;-37
2022/03/01 02:50:29;;;;;;;17.47;12.50;;;4.60;99.50;;;;;;5035970;28;20212;-37
2022/03/01 02:52:56;;;;;;;18.10;12.20;;;4.60;99.50;;;;;;5037199;28;20235;-38
2022/03/01 02:55:24;;;;;;;18.63;12.50;;;4.50;99.50;;;;;;5044799;28;20215;-35
2022/03/01 02:57:51;;;;;;;17.87;12.33;;;4.50;99.50;;;;;;5033609;28;20614;-37
2022/03/01 03:00:18;;;;;;;20.17;13.00;;;4.50;99.50;;;;;;5031036;28;20220;-37
2022/03/01 03:02:45;;;;;;;20.30;12.80;;;4.50;99.50;;;;;;5029936;28;20208;-37
2022/03/01 03:05:13;;;;;;;19.10;12.97;;;4.50;99.50;;;;;;5017857;28;20219;-37
2022/03/01 03:07:42;;;;;;;17.13;12.00;;;4.50;99.50;;;;;;5033222;28;20204;-37
2022/03/01 03:10:12;;;;;;;20.30;12.50;;;4.50;99.50;;;;;;5028083;28;20221;-38
2022/03/01 03:12:46;;;;;;;19.37;12.43;;;4.50;99.50;;;;;;5028323;28;20277;-37
2022/03/01 03:15:14;;;;;;;18.60;11.77;;;4.40;99.50;;;;;;5027877;28;20744;-37
2022/03/01 03:17:44;;;;;;;19.33;12.23;;;4.40;99.50;;;;;;5013700;28;20197;-37
2022/03/01 03:20:13;;;;;;;18.63;12.63;;;4.40;99.50;;;;;;5042257;28;20200;-37
2022/03/01 03:22:41;;;;;;;18.17;12.57;;;4.40;99.50;;;;;;5026487;28;20196;-37
2022/03/01 03:25:08;;;;;;;19.00;12.07;;;4.40;99.50;;;;;;5027378;28;20207;-37
2022/03/01 03:27:39;;;;;;;23.17;13.13;;;4.40;99.50;;;;;;5028089;28;20217;-38
2022/03/01 03:30:10;;;;;;;19.37;12.73;;;4.40;99.50;;;;;;5031325;28;20316;-37
2022/03/01 03:32:40;;;;;;;18.97;13.40;;;4.40;99.50;;;;;;5043121;28;20216;-37
2022/03/01 03:35:10;;;;;;;23.43;12.97;;;4.40;99.50;;;;;;5034591;28;20213;-37
2022/03/01 03:37:37;;;;;;;21.50;12.97;;;4.30;99.50;;;;;;5018124;28;20259;-37
2022/03/01 03:40:05;;;;;;;21.40;12.50;;;4.40;99.50;;;;;;4999892;28;20280;-38
2022/03/01 03:42:35;;;;;;;21.43;13.00;;;4.40;99.50;;;;;;5050720;28;20506;-37
2022/03/01 03:45:06;;;;;;;18.90;12.73;;;4.40;99.60;;;;;;5040533;28;20263;-37
2022/03/01 03:47:33;;;;;;;20.07;13.23;;;4.40;99.50;;;;;;5013575;28;20953;-37
2022/03/01 03:50:01;;;;;;;21.57;12.27;;;4.40;99.60;;;;;;5033703;28;20236;-38
2022/03/01 03:52:29;;;;;;;21.10;12.50;;;4.40;99.60;;;;;;5034146;28;20234;-37
2022/03/01 03:54:56;;;;;;;22.53;13.10;;;4.40;99.60;;;;;;5031873;28;20215;-38
2022/03/01 03:57:28;;;;;;;18.00;11.80;;;4.40;99.60;;;;;;5030436;28;20189;-38
2022/03/01 03:59:59;;;;;;;21.30;12.50;;;4.50;99.70;;;;;;5029925;28;20211;-38
2022/03/01 04:02:28;;;;;;;23.20;13.00;;;4.50;99.70;;;;;;5031494;28;20209;-37
2022/03/01 04:04:58;;;;;;;17.47;12.37;;;4.50;99.70;;;;;;5040365;28;20214;-37
2022/03/01 04:07:25;;;;;;;17.93;12.67;;;4.50;99.70;;;;;;5046640;28;20196;-37
2022/03/01 04:09:54;;;;;;;21.23;12.57;;;4.60;99.80;;;;;;5029839;28;20209;-38
2022/03/01 04:12:22;;;;;;;21.27;13.43;;;4.60;99.80;;;;;;5035264;28;20762;-37
2022/03/01 04:14:51;;;;;;;17.73;12.23;;;4.60;99.80;;;;;;5041921;28;20224;-38
2022/03/01 04:17:19;;;;;;;19.57;12.70;;;4.60;99.80;;;;;;5041893;28;20208;-38
2022/03/01 04:19:46;;;;;;;21.20;13.10;;;4.60;99.80;;;;;;5032111;28;20638;-38
2022/03/01 04:22:13;;;;;;;18.70;12.23;;;4.60;99.80;;;;;;5030197;28;20259;-38
2022/03/01 04:24:43;;;;;;;20.33;12.70;;;4.60;99.80;;;;;;5022393;28;20213;-38
2022/03/01 04:27:17;;;;;;;19.83;11.97;;;4.70;99.90;;;;;;5043715;28;20247;-37
2022/03/01 04:29:45;;;;;;;17.70;12.73;;;4.60;99.80;;;;;;5042286;28;20213;-37
2022/03/01 04:32:14;;;;;;;19.30;13.20;;;4.70;99.90;;;;;;5048069;28;20201;-38
2022/03/01 04:34:42;;;;;;;17.37;12.33;;;4.70;99.90;;;;;;5037878;28;20224;-37
2022/03/01 04:37:14;;;;;;;20.80;12.83;;;4.70;99.90;;;;;;5028909;28;20209;-38
2022/03/01 04:39:41;;;;;;;19.33;12.10;;;4.70;99.90;;;;;;5026872;28;20200;-38
2022/03/01 04:42:14;;;;;;;17.60;12.33;;;4.70;99.90;;;;;;5033475;28;20190;-38
2022/03/01 04:44:46;;;;;;;19.07;12.50;;;4.70;99.90;;;;;;5029720;28;20686;-37
2022/03/01 04:47:15;;;;;;;20.23;12.33;;;4.70;99.90;;;;;;5032825;28;20576;-38
2022/03/01 04:49:42;;;;;;;17.87;12.50;;;4.70;99.90;;;;;;5029526;28;20205;-37
2022/03/01 04:52:10;;;;;;;19.57;13.33;;;4.70;99.90;;;;;;5038342;28;20279;-38
2022/03/01 04:54:38;;;;;;;19.43;12.47;;;4.70;99.90;;;;;;5033273;28;20717;-38
2022/03/01 04:57:05;;;;;;;18.80;11.97;;;4.70;99.90;;;;;;5030890;28;20198;-38
2022/03/01 04:59:32;;;;;;;19.20;12.50;;;4.70;99.90;;;;;;5011943;28;20217;-38
2022/03/01 05:01:59;;;;;;;18.20;11.83;;;4.70;99.90;;;;;;5034568;28;20196;-38
2022/03/01 05:04:32;;;;;;;18.57;12.57;;;4.80;99.90;;;;;;5047816;28;20590;-38
2022/03/01 05:07:02;;;;;;;21.83;12.03;;;4.80;99.90;;;;;;5029925;28;20693;-38
2022/03/01 05:09:31;;;;;;;18.27;12.13;;;4.80;99.90;;;;;;5033089;28;20205;-38
2022/03/01 05:12:00;;;;;;;17.53;11.97;;;4.80;99.90;;;;;;5033477;28;20261;-38
2022/03/01 05:14:28;;;;;;;19.57;13.00;;;4.80;99.90;;;;;;5044784;28;20215;-37
2022/03/01 05:16:57;;;;;;;18.43;12.00;;;4.80;99.90;;;;;;5032260;28;20197;-37
2022/03/01 05:19:26;;;;;;;17.40;11.80;;;4.80;99.90;;;;;;5017823;28;20239;-37
2022/03/01 05:21:58;;;;;;;16.60;12.17;;;4.80;99.90;;;;;;5044960;28;20231;-37
2022/03/01 05:24:29;;;;;;;15.63;11.63;;;4.90;99.90;;;;;;5030033;28;20223;-38
2022/03/01 05:26:56;;;;;;;16.73;11.40;;;4.90;99.90;;;;;;5033622;28;20292;-37
2022/03/01 05:29:26;;;;;;;17.93;11.47;;;4.90;99.90;;;;;;5035586;28;20244;-37
2022/03/01 05:31:58;;;;;;;17.53;10.77;;;4.90;99.90;;;;;;5033328;28;20241;-38
2022/03/01 05:34:28;;;;;;;14.50;10.37;;;4.90;99.90;;;;;;5039773;28;20631;-37
2022/03/01 05:36:55;;;;;;;16.70;11.67;;;4.90;99.90;;;;;;5042409;28;20200;-38
2022/03/01 05:39:25;;;;;;;16.10;11.43;;;5.00;99.90;;;;;;5030020;28;20283;-37
2022/03/01 05:41:52;;;;;;;17.00;11.43;;;5.00;99.90;;;;;;5030220;28;20646;-37
2022/03/01 05:44:22;;;;;;;21.27;11.70;;;5.00;99.90;;;;;;5014494;28;20201;-37
2022/03/01 05:46:53;;;;;;;17.83;11.30;;;5.00;99.90;;;;;;5036649;28;20570;-37
2022/03/01 05:49:23;;;;;;;18.10;12.00;;;5.00;99.90;;;;;;5038075;28;20312;-37
2022/03/01 05:51:53;;;;;;;14.83;11.00;;;5.00;99.90;;;;;;5034626;28;20211;-38
2022/03/01 05:54:20;;;;;;;17.33;11.60;;;5.00;99.90;;;;;;5025594;28;20228;-37
2022/03/01 05:56:47;;;;;;;15.03;11.20;;;5.00;99.90;;;;;;5028745;28;20225;-37
2022/03/01 05:59:14;;;;;;;17.93;11.60;;;5.00;99.90;;;;;;5025687;28;20211;-37
2022/03/01 06:01:46;;;;;;;19.13;10.90;;;5.00;99.90;;;;;;5014200;28;20204;-37
2022/03/01 06:04:16;;;;;;;18.03;11.87;;;5.00;99.90;;;;;;5032148;28;20209;-37
2022/03/01 06:06:44;;;;;;;19.67;11.33;;;5.00;99.90;;;;;;5042438;28;20243;-40
2022/03/01 06:09:16;;;;;;;19.00;11.87;;;5.00;99.90;;;;;;5031737;28;20224;-39
2022/03/01 06:11:48;;;;;;;20.77;11.70;;;5.00;99.90;;;;;;5037777;28;20217;-38
2022/03/01 06:14:16;;;;;;;21.17;12.63;;;5.00;99.90;;;;;;5040919;28;20274;-40
2022/03/01 06:16:45;;;;;;;18.97;11.40;;;5.00;99.90;;;;;;5012546;28;20232;-39
2022/03/01 06:19:12;;;;;;;19.10;12.03;;;5.00;99.90;;;;;;5029773;28;20232;-39
2022/03/01 06:21:42;;;;;;;20.87;12.20;;;5.00;99.90;;;;;;5030911;28;20292;-39
2022/03/01 06:24:12;;;;;;;18.83;11.53;;;5.00;99.90;;;;;;5034674;28;20230;-39
2022/03/01 06:26:40;;;;;;;17.07;11.83;;;5.00;99.90;;;;;;5018808;28;20686;-39
2022/03/01 06:29:08;;;;;;;17.37;11.60;;;5.00;99.90;;;;;;5013260;28;20225;-38
2022/03/01 06:31:36;;;;;;;19.57;12.20;;;5.00;99.90;;;;;;5024786;28;20204;-39
2022/03/01 06:34:03;;;;;;;19.10;12.00;;;4.90;99.90;;;;;;5037187;28;20200;-40
2022/03/01 06:36:30;;;;;;;18.60;11.97;;;4.90;99.90;;;;;;5016718;28;20259;-40
2022/03/01 06:39:01;;;;;;;17.63;12.23;;;4.90;99.90;;;;;;5020336;28;20660;-39
2022/03/01 06:41:28;;;;;;;19.73;12.20;;;4.90;99.90;;;;;;5029336;28;20193;-39
2022/03/01 06:43:55;;;;;;;18.17;12.00;;;4.90;99.90;;;;;;5040520;28;20201;-40
2022/03/01 06:46:22;;;;;;;22.77;12.53;;;4.90;99.90;;;;;;5028647;28;20675;-37
2022/03/01 06:48:50;;;;;;;21.80;12.50;;;4.80;99.90;;;;;;5031216;28;20617;-40
2022/03/01 06:51:19;;;;;;;19.40;11.63;;;4.80;99.90;;;;;;5024164;28;20259;-39
2022/03/01 06:53:49;;;;;;;18.93;11.87;;;4.80;99.90;;;;;;5029106;28;20234;-39
2022/03/01 06:56:19;;;;;;;20.43;12.27;;;4.80;99.90;;;;;;5015287;28;20638;-39
2022/03/01 06:58:49;;;;;;;22.77;12.93;;;4.80;99.90;;;;;;5040727;28;20666;-39
2022/03/01 07:01:18;;;;;;;18.47;12.87;;;4.80;99.90;;;;;;5041378;28;20700;-40
2022/03/01 07:03:48;;;;;;;25.07;13.63;;;4.80;99.90;;;;;;5039370;28;20709;-40
2022/03/01 07:06:20;;;;;;;20.37;12.47;;;4.80;99.90;;;;;;5040610;28;20299;-39
2022/03/01 07:08:49;;;;;;;23.87;13.17;;;4.80;99.90;;;;;;5026341;28;20698;-40
2022/03/01 07:11:19;;;;;;;23.57;13.00;;;4.80;99.90;;;;;;5038986;28;20248;-39
2022/03/01 07:13:47;;;;;;;21.03;12.40;;;4.90;99.90;;;;;;5013486;28;20213;-40
2022/03/01 07:16:20;;;;;;;19.67;12.17;;;4.90;99.90;;;;;;5037999;28;20721;-40
2022/03/01 07:18:50;;;;;;;19.10;12.53;;;4.90;99.90;;;;;;5021001;28;20258;-39
2022/03/01 07:21:17;;;;;;;20.77;12.60;;;4.90;99.90;;;;;;5036311;28;20579;-39
2022/03/01 07:23:44;;;;;;;22.20;12.40;;;5.00;99.90;;;;;;5028417;28;20269;-39
2022/03/01 07:26:12;;;;;;;22.23;13.17;;;5.00;99.90;;;;;;5032607;28;20221;-38
2022/03/01 07:28:39;;;;;;;24.93;12.80;;;5.00;99.90;;;;;;5043329;28;20214;-38
2022/03/01 07:31:07;;;;;;;21.90;13.27;;;5.10;99.90;;;;;;5031519;28;20217;-39
2022/03/01 07:33:34;;;;;;;22.87;13.37;;;5.10;99.90;;;;;;5021500;28;20205;-38
2022/03/01 07:36:07;;;;;;;26.40;12.50;;;5.10;99.90;;;;;;5029195;28;20225;-40
2022/03/01 07:38:36;;;;;;;20.17;12.33;;;5.20;99.90;;;;;;5031477;28;20209;-39
2022/03/01 07:41:08;;;;;;;32.33;13.40;;;5.20;99.90;;;;;;5032462;28;20193;-40
2022/03/01 07:43:40;;;;;;;21.27;12.47;;;5.30;99.90;;;;;;5046434;28;20206;-39
2022/03/01 07:46:13;;;;;;;28.53;13.33;;;5.30;99.90;;;;;;5034234;28;20243;-38
2022/03/01 07:48:41;;;;;;;26.57;13.57;;;5.30;99.90;;;;;;5044244;28;20722;-39
2022/03/01 07:51:13;;;;;;;19.37;12.07;;;5.40;99.90;;;;;;5036519;28;20203;-39
2022/03/01 07:53:43;;;;;;;23.90;12.13;;;5.40;99.90;;;;;;5038915;28;20240;-39
2022/03/01 07:56:13;;;;;;;23.03;13.03;;;5.40;99.90;;;;;;5025951;28;20231;-40
2022/03/01 07:58:40;;;;;;;39.97;14.63;;;5.40;99.90;;;;;;5035524;28;20242;-39
2022/03/01 08:01:08;;;;;;;32.87;13.93;;;5.50;99.90;;;;;;5040346;28;20204;-39
2022/03/01 08:03:35;;;;;;;30.27;14.27;;;5.50;99.90;;;;;;5040148;28;20204;-40
2022/03/01 08:06:03;;;;;;;34.00;14.70;;;5.50;99.90;;;;;;5038459;28;20227;-39
2022/03/01 08:08:30;;;;;;;22.47;13.20;;;5.60;99.90;;;;;;5045442;28;20216;-40
2022/03/01 08:10:59;;;;;;;22.97;12.97;;;5.60;99.90;;;;;;5028608;28;20209;-38
2022/03/01 08:13:42;;;;;;;21.97;12.63;;;5.70;99.90;;;;;;5026243;28;20212;-39
2022/03/01 08:16:13;;;;;;;21.03;12.07;;;5.70;99.90;;;;;;5030618;28;20407;-38
2022/03/01 08:18:43;;;;;;;22.10;12.40;;;5.80;99.90;;;;;;5028293;28;20291;-39
2022/03/01 08:21:12;;;;;;;25.43;12.90;;;5.90;99.90;;;;;;5026724;28;20201;-40
2022/03/01 08:23:42;;;;;;;23.83;13.60;;;5.90;99.90;;;;;;5040676;28;20682;-39
2022/03/01 08:26:12;;;;;;;26.80;13.53;;;6.00;99.90;;;;;;5036737;28;20296;-39
2022/03/01 08:28:40;;;;;;;20.00;12.17;;;6.10;99.90;;;;;;5034585;28;21618;-38
2022/03/01 08:31:07;;;;;;;20.47;11.63;;;6.10;99.90;;;;;;5046166;28;20766;-39
2022/03/01 08:33:37;;;;;;;19.37;12.27;;;6.20;99.90;;;;;;5049618;28;20867;-39
2022/03/01 08:36:09;;;;;;;23.67;13.13;;;6.30;99.90;;;;;;5047212;28;20709;-40
2022/03/01 08:38:39;;;;;;;22.00;12.63;;;6.30;99.90;;;;;;5049693;28;20200;-39
2022/03/01 08:41:13;;;;;;;20.37;12.30;;;6.40;99.90;;;;;;5049800;28;20734;-40
2022/03/01 08:43:46;;;;;;;21.67;12.83;;;6.50;99.90;;;;;;5050170;28;20730;-39
2022/03/01 08:46:18;;;;;;;26.17;13.53;;;6.50;99.90;;;;;;5048044;28;20266;-39
2022/03/01 08:48:48;;;;;;;26.43;13.60;;;6.60;99.90;;;;;;5031428;28;20639;-38
2022/03/01 08:51:15;;;;;;;28.03;13.23;;;6.70;99.90;;;;;;5040214;28;20201;-39
2022/03/01 08:53:42;;;;;;;30.93;13.87;;;6.80;99.90;;;;;;5032038;28;20255;-40
2022/03/01 08:56:10;;;;;;;29.40;14.23;;;6.90;99.90;;;;;;5034537;28;20248;-39
2022/03/01 08:58:40;;;;;;;23.10;11.87;;;7.00;99.90;;;;;;5032258;28;20710;-39
2022/03/01 09:01:10;;;;;;;20.17;11.63;;;7.10;99.90;;;;;;5032469;28;20519;-39
2022/03/01 09:03:40;;;;;;;17.67;11.47;;;7.10;99.90;;;;;;5029720;28;20262;-39
2022/03/01 09:06:17;;;;;;;16.70;11.53;;;7.20;99.90;;;;;;5011068;28;20275;-39
2022/03/01 09:08:46;;;;;;;19.83;11.90;;;7.30;99.90;;;;;;5032110;28;20204;-39
2022/03/01 09:11:13;;;;;;;18.83;11.53;;;7.30;99.90;;;;;;5039217;28;20204;-37
2022/03/01 09:13:43;;;;;;;16.30;11.37;;;7.40;99.90;;;;;;5035747;28;20240;-37
2022/03/01 09:16:16;;;;;;;18.43;11.23;;;7.40;99.90;;;;;;5032056;28;20259;-38
2022/03/01 09:18:43;;;;;;;21.23;13.03;;;7.50;99.90;;;;;;5040836;28;20639;-38
2022/03/01 09:21:15;;;;;;;23.17;12.07;;;7.60;99.90;;;;;;5033086;28;20240;-37
2022/03/01 09:23:50;;;;;;;24.03;13.97;;;7.70;99.90;;;;;;5019147;28;20200;-38
2022/03/01 09:26:17;;;;;;;27.67;13.13;;;7.70;99.90;;;;;;5035312;28;20216;-38
2022/03/01 09:28:44;;;;;;;23.17;13.30;;;7.80;99.90;;;;;;5035200;28;20197;-37
2022/03/01 09:31:14;;;;;;;26.30;14.00;;;7.90;99.90;;;;;;5020814;28;20565;-38
2022/03/01 09:33:45;;;;;;;19.10;12.33;;;8.00;99.90;;;;;;5041775;28;20205;-38
2022/03/01 09:36:17;;;;;;;18.80;12.60;;;8.10;99.90;;;;;;5037214;28;20232;-38
2022/03/01 09:38:47;;;;;;;23.13;14.13;;;8.20;99.90;;;;;;5028714;28;20287;-38
2022/03/01 09:41:17;;;;;;;21.07;12.17;;;8.30;99.90;;;;;;5050287;28;20659;-38
2022/03/01 09:43:47;;;;;;;23.43;12.90;;;8.40;99.90;;;;;;5034975;28;20219;-38
2022/03/01 09:46:15;;;;;;;18.53;12.13;;;8.50;99.90;;;;;;5047577;28;20632;-38
2022/03/01 09:48:45;;;;;;;25.07;11.23;;;8.50;99.90;;;;;;5031412;28;20274;-38
2022/03/01 09:51:19;;;;;;;23.10;12.90;;;8.60;99.90;;;;;;5041489;28;20192;-37
2022/03/01 09:53:47;;;;;;;20.97;12.00;;;8.70;99.90;;;;;;5040380;28;20254;-38
2022/03/01 09:56:15;;;;;;;18.77;11.50;;;8.80;99.90;;;;;;5045061;28;20212;-37
2022/03/01 09:58:47;;;;;;;26.70;12.60;;;8.80;99.90;;;;;;5032576;28;20205;-38
2022/03/01 10:01:18;;;;;;;24.93;12.33;;;8.90;99.90;;;;;;5035678;28;20462;-38
2022/03/01 10:03:49;;;;;;;17.17;12.33;;;9.00;99.90;;;;;;5040268;28;20250;-38
2022/03/01 10:06:24;;;;;;;17.67;11.50;;;9.10;99.90;;;;;;5041950;28;21101;-38
2022/03/01 10:08:55;;;;;;;18.10;11.70;;;9.20;99.90;;;;;;5032614;28;20222;-38
2022/03/01 10:11:35;;;;;;;19.83;13.00;;;9.30;99.90;;;;;;5014625;28;20216;-37
2022/03/01 10:14:09;;;;;;;14.00;11.20;;;9.30;99.90;;;;;;5032805;28;20645;-38
2022/03/01 10:16:43;;;;;;;16.97;11.17;;;9.30;99.90;;;;;;5032436;28;20319;-37
2022/03/01 10:19:18;;;;;;;19.50;11.83;;;9.40;99.90;;;;;;5040916;28;20564;-37
2022/03/01 10:21:58;;;;;;;18.43;11.80;;;9.50;99.90;;;;;;5013063;28;20208;-37
2022/03/01 10:24:26;;;;;;;19.17;11.73;;;9.50;99.90;;;;;;5034597;28;20568;-38
2022/03/01 10:26:58;;;;;;;17.73;10.87;;;9.60;99.90;;;;;;5033870;28;20204;-37
2022/03/01 10:29:47;;;;;;;15.83;11.13;;;9.60;99.90;;;;;;5019420;28;20200;-37
2022/03/01 10:32:14;;;;;;;29.33;12.27;;;9.70;99.90;;;;;;5010818;28;20496;-38
2022/03/01 10:35:06;;;;;;;19.60;12.27;;;9.80;99.90;;;;;;5029798;28;20219;-37
2022/03/01 10:37:40;;;;;;;18.20;11.97;;;9.90;99.90;;;;;;5019516;28;20274;-38
2022/03/01 10:40:18;;;;;;;18.47;12.03;;;9.90;99.90;;;;;;5039873;28;20195;-37
2022/03/01 10:43:17;;;;;;;17.10;11.07;;;10.00;99.90;;;;;;5045491;28;20204;-37
2022/03/01 10:45:47;;;;;;;17.30;11.97;;;10.10;99.90;;;;;;5037351;28;20623;-37
2022/03/01 10:48:34;;;;;;;54.63;17.17;;;10.20;99.90;;;;;;5026901;28;20197;-37
2022/03/01 10:51:05;;;;;;;25.57;12.47;;;10.30;99.90;;;;;;5035291;28;20291;-37
2022/03/01 10:53:41;;;;;;;24.53;12.40;;;10.40;99.90;;;;;;5032801;28;20228;-36
2022/03/01 10:56:14;;;;;;;18.53;11.77;;;10.40;99.90;;;;;;5043534;28;20219;-36
2022/03/01 10:58:43;;;;;;;19.17;11.57;;;10.40;99.90;;;;;;5032183;28;20201;-36
2022/03/01 11:01:15;;;;;;;15.23;9.80;;;10.50;99.90;;;;;;5008828;28;20197;-35
2022/03/01 11:03:43;;;;;;;17.27;10.57;;;10.60;99.90;;;;;;5041176;28;20415;-37
2022/03/01 11:06:11;;;;;;;14.37;10.50;;;10.60;99.90;;;;;;5044368;28;20282;-35
2022/03/01 11:08:41;;;;;;;15.93;10.73;;;10.60;99.90;;;;;;5038334;28;20211;-37
2022/03/01 11:11:14;;;;;;;18.07;11.23;;;10.70;99.90;;;;;;5036010;28;20196;-37
2022/03/01 11:13:45;;;;;;;17.67;11.23;;;10.80;99.90;;;;;;5036566;28;20261;-36
2022/03/01 11:16:41;;;;;;;16.17;11.00;;;10.80;99.90;;;;;;5026880;28;20208;-36
2022/03/01 11:19:34;;;;;;;16.10;11.30;;;10.90;99.90;;;;;;5029901;28;20437;-36
2022/03/01 11:22:15;;;;;;;15.63;10.53;;;10.90;99.90;;;;;;5007592;28;20662;-36
2022/03/01 11:24:45;;;;;;;14.43;10.50;;;10.90;99.90;;;;;;5036626;28;20215;-37
2022/03/01 11:27:19;;;;;;;12.97;10.23;;;11.00;99.90;;;;;;5038079;28;20279;-37
2022/03/01 11:29:46;;;;;;;14.60;11.20;;;11.00;99.90;;;;;;5042604;28;20211;-36
2022/03/01 11:32:18;;;;;;;16.67;10.90;;;11.00;99.90;;;;;;5065682;28;20716;-37
2022/03/01 11:34:46;;;;;;;14.80;10.60;;;11.00;99.90;;;;;;5022098;28;20667;-37
2022/03/01 11:37:22;;;;;;;17.13;11.17;;;11.10;99.90;;;;;;5045433;28;20251;-36
2022/03/01 11:39:57;;;;;;;13.90;10.40;;;11.10;99.90;;;;;;5044983;28;20289;-36
2022/03/01 11:42:30;;;;;;;17.23;11.73;;;11.10;99.90;;;;;;5028824;28;20200;-36
2022/03/01 11:45:06;;;;;;;19.90;11.60;;;11.10;99.90;;;;;;5031763;28;20224;-37
2022/03/01 11:47:35;;;;;;;17.80;11.23;;;11.20;99.90;;;;;;5034356;28;20221;-36
2022/03/01 11:50:20;;;;;;;18.13;11.13;;;11.20;99.90;;;;;;5029560;28;20200;-37
2022/03/01 11:52:53;;;;;;;15.60;11.30;;;11.20;99.90;;;;;;5040028;28;20240;-37
2022/03/01 11:55:22;;;;;;;14.10;10.27;;;11.30;99.90;;;;;;5036176;28;20721;-36
2022/03/01 11:57:51;;;;;;;14.40;10.87;;;11.30;99.90;;;;;;5043706;28;20315;-36
2022/03/01 12:00:25;;;;;;;15.03;10.77;;;11.40;99.90;;;;;;5034867;28;20196;-35
2022/03/01 12:02:58;;;;;;;16.87;11.00;;;11.40;99.90;;;;;;5045478;28;20215;-35
2022/03/01 12:05:29;;;;;;;13.90;10.50;;;11.50;99.90;;;;;;5021267;28;20219;-36
2022/03/01 12:07:56;;;;;;;16.43;11.63;;;11.50;99.90;;;;;;5047804;28;20208;-36
2022/03/01 12:10:58;;;;;;;16.00;11.60;;;11.60;99.90;;;;;;5036164;28;20196;-36
2022/03/01 12:13:46;;;;;;;14.07;10.93;;;11.60;99.90;;;;;;5029757;28;20208;-37
2022/03/01 12:16:26;;;;;;;15.13;11.13;;;11.70;99.90;;;;;;5020800;28;20203;-36
2022/03/01 12:19:24;;;;;;;16.90;11.07;;;11.70;99.90;;;;;;5040420;28;20211;-36
2022/03/01 12:21:58;;;;;;;17.90;10.33;;;11.70;99.90;;;;;;5040479;28;20231;-35
2022/03/01 12:24:30;;;;;;;16.23;10.63;;;11.80;99.90;;;;;;5034647;28;20200;-35
2022/03/01 12:27:03;;;;;;;15.33;10.63;;;11.90;99.90;;;;;;5040081;28;20224;-36
2022/03/01 12:29:36;;;;;;;16.57;11.37;;;11.90;99.90;;;;;;5044084;28;20968;-36
2022/03/01 12:32:08;;;;;;;16.67;10.97;;;12.00;99.90;;;;;;5041683;28;20228;-36
2022/03/01 12:34:40;;;;;;;16.23;10.97;;;12.00;99.90;;;;;;5011902;28;20233;-35
2022/03/01 12:37:17;;;;;;;18.43;10.77;;;12.00;99.90;;;;;;5022564;28;20230;-36
2022/03/01 12:39:48;;;;;;;14.87;10.00;;;12.10;99.90;;;;;;5041143;28;20216;-36
2022/03/01 12:42:15;;;;;;;13.17;9.87;;;12.10;99.90;;;;;;5033186;28;20320;-36
2022/03/01 12:44:42;;;;;;;17.63;10.67;;;12.20;99.90;;;;;;5014122;28;20258;-36
2022/03/01 12:47:12;;;;;;;16.60;10.90;;;12.20;99.90;;;;;;5046034;28;20205;-36
2022/03/01 12:49:42;;;;;;;14.63;11.03;;;12.30;99.90;;;;;;5049040;28;20223;-36
2022/03/01 12:52:16;;;;;;;16.73;11.20;;;12.30;99.90;;;;;;5039771;28;20228;-36